sensor_id;sensor_type;location;lat;lon;timestamp;P1;durP1;ratioP1;P2;durP2;ratioP2
65162;SDS011;51751;55.714;37.436;2023-02-28T00:00:24;5.47;;;3.35;;
65162;SDS011;51751;55.714;37.436;2023-02-28T00:02:50;6.40;;;3.78;;
65162;SDS011;51751;55.714;37.436;2023-02-28T00:05:17;4.13;;;2.28;;
65162;SDS011;51751;55.714;37.436;2023-02-28T00:07:49;3.45;;;2.03;;
65162;SDS011;51751;55.714;37.436;2023-02-28T00:10:20;4.35;;;2.65;;
65162;SDS011;51751;55.714;37.436;2023-02-28T00:12:48;6.72;;;3.20;;
65162;SDS011;51751;55.714;37.436;2023-02-28T00:15:15;6.55;;;3.30;;
65162;SDS011;51751;55.714;37.436;2023-02-28T00:17:41;6.05;;;3.28;;
65162;SDS011;51751;55.714;37.436;2023-02-28T00:20:07;5.80;;;2.97;;
65162;SDS011;51751;55.714;37.436;2023-02-28T00:22:38;7.45;;;3.83;;
65162;SDS011;51751;55.714;37.436;2023-02-28T00:25:05;7.00;;;3.75;;
65162;SDS011;51751;55.714;37.436;2023-02-28T00:27:35;4.28;;;2.40;;
65162;SDS011;51751;55.714;37.436;2023-02-28T00:30:04;4.43;;;2.50;;
65162;SDS011;51751;55.714;37.436;2023-02-28T00:32:31;4.88;;;2.63;;
65162;SDS011;51751;55.714;37.436;2023-02-28T00:35:00;7.93;;;3.40;;
65162;SDS011;51751;55.714;37.436;2023-02-28T00:37:29;6.45;;;2.97;;
65162;SDS011;51751;55.714;37.436;2023-02-28T00:39:55;5.40;;;3.35;;
65162;SDS011;51751;55.714;37.436;2023-02-28T00:42:21;4.05;;;2.38;;
65162;SDS011;51751;55.714;37.436;2023-02-28T00:44:47;5.97;;;3.28;;
65162;SDS011;51751;55.714;37.436;2023-02-28T00:47:13;6.78;;;3.13;;
65162;SDS011;51751;55.714;37.436;2023-02-28T00:49:39;6.45;;;3.15;;
65162;SDS011;51751;55.714;37.436;2023-02-28T00:52:05;4.57;;;2.58;;
65162;SDS011;51751;55.714;37.436;2023-02-28T00:54:31;3.97;;;2.30;;
65162;SDS011;51751;55.714;37.436;2023-02-28T00:56:58;5.15;;;2.70;;
65162;SDS011;51751;55.714;37.436;2023-02-28T00:59:24;5.38;;;2.97;;
65162;SDS011;51751;55.714;37.436;2023-02-28T01:01:50;5.75;;;2.78;;
65162;SDS011;51751;55.714;37.436;2023-02-28T01:04:16;6.40;;;3.47;;
65162;SDS011;51751;55.714;37.436;2023-02-28T01:06:45;5.15;;;2.67;;
65162;SDS011;51751;55.714;37.436;2023-02-28T01:09:11;5.43;;;2.80;;
65162;SDS011;51751;55.714;37.436;2023-02-28T01:11:40;6.15;;;2.67;;
65162;SDS011;51751;55.714;37.436;2023-02-28T01:14:07;6.00;;;2.80;;
65162;SDS011;51751;55.714;37.436;2023-02-28T01:16:34;5.85;;;3.28;;
65162;SDS011;51751;55.714;37.436;2023-02-28T01:19:01;7.00;;;2.22;;
65162;SDS011;51751;55.714;37.436;2023-02-28T01:21:27;5.75;;;2.90;;
65162;SDS011;51751;55.714;37.436;2023-02-28T01:23:56;4.07;;;2.38;;
65162;SDS011;51751;55.714;37.436;2023-02-28T01:26:22;5.97;;;2.97;;
65162;SDS011;51751;55.714;37.436;2023-02-28T01:28:49;4.68;;;2.85;;
65162;SDS011;51751;55.714;37.436;2023-02-28T01:31:16;5.97;;;2.83;;
65162;SDS011;51751;55.714;37.436;2023-02-28T01:33:46;5.00;;;2.80;;
65162;SDS011;51751;55.714;37.436;2023-02-28T01:36:31;6.15;;;3.10;;
65162;SDS011;51751;55.714;37.436;2023-02-28T01:38:57;5.75;;;2.75;;
65162;SDS011;51751;55.714;37.436;2023-02-28T01:41:27;5.68;;;3.00;;
65162;SDS011;51751;55.714;37.436;2023-02-28T01:43:59;5.60;;;3.20;;
65162;SDS011;51751;55.714;37.436;2023-02-28T01:46:29;5.68;;;2.95;;
65162;SDS011;51751;55.714;37.436;2023-02-28T01:49:17;5.07;;;3.05;;
65162;SDS011;51751;55.714;37.436;2023-02-28T01:51:47;3.60;;;2.50;;
65162;SDS011;51751;55.714;37.436;2023-02-28T01:54:27;3.85;;;2.45;;
65162;SDS011;51751;55.714;37.436;2023-02-28T01:57:06;4.78;;;3.00;;
65162;SDS011;51751;55.714;37.436;2023-02-28T01:59:40;5.88;;;3.25;;
65162;SDS011;51751;55.714;37.436;2023-02-28T02:02:12;3.60;;;2.35;;
65162;SDS011;51751;55.714;37.436;2023-02-28T02:04:40;6.03;;;3.35;;
65162;SDS011;51751;55.714;37.436;2023-02-28T02:07:11;5.93;;;2.67;;
65162;SDS011;51751;55.714;37.436;2023-02-28T02:09:39;6.13;;;3.25;;
65162;SDS011;51751;55.714;37.436;2023-02-28T02:12:10;7.13;;;3.17;;
65162;SDS011;51751;55.714;37.436;2023-02-28T02:14:48;6.43;;;3.30;;
65162;SDS011;51751;55.714;37.436;2023-02-28T02:17:34;8.68;;;4.10;;
65162;SDS011;51751;55.714;37.436;2023-02-28T02:23:16;6.40;;;3.10;;
65162;SDS011;51751;55.714;37.436;2023-02-28T02:35:24;4.72;;;2.65;;
65162;SDS011;51751;55.714;37.436;2023-02-28T02:41:11;8.90;;;3.65;;
65162;SDS011;51751;55.714;37.436;2023-02-28T02:43:51;6.20;;;3.33;;
65162;SDS011;51751;55.714;37.436;2023-02-28T02:46:25;6.60;;;3.15;;
65162;SDS011;51751;55.714;37.436;2023-02-28T02:48:57;7.18;;;3.63;;
65162;SDS011;51751;55.714;37.436;2023-02-28T02:51:25;5.78;;;3.38;;
65162;SDS011;51751;55.714;37.436;2023-02-28T02:56:33;6.90;;;3.80;;
65162;SDS011;51751;55.714;37.436;2023-02-28T02:59:06;7.03;;;3.78;;
65162;SDS011;51751;55.714;37.436;2023-02-28T03:01:37;10.40;;;4.25;;
65162;SDS011;51751;55.714;37.436;2023-02-28T03:04:08;6.55;;;3.83;;
65162;SDS011;51751;55.714;37.436;2023-02-28T03:06:40;7.95;;;3.92;;
65162;SDS011;51751;55.714;37.436;2023-02-28T03:09:06;7.13;;;3.67;;
65162;SDS011;51751;55.714;37.436;2023-02-28T03:11:32;5.18;;;3.17;;
65162;SDS011;51751;55.714;37.436;2023-02-28T03:17:06;6.28;;;3.35;;
65162;SDS011;51751;55.714;37.436;2023-02-28T03:22:39;6.32;;;3.13;;
65162;SDS011;51751;55.714;37.436;2023-02-28T03:28:11;4.53;;;2.47;;
65162;SDS011;51751;55.714;37.436;2023-02-28T03:33:44;5.65;;;2.78;;
65162;SDS011;51751;55.714;37.436;2023-02-28T03:36:21;4.00;;;2.47;;
65162;SDS011;51751;55.714;37.436;2023-02-28T03:38:54;5.68;;;3.00;;
65162;SDS011;51751;55.714;37.436;2023-02-28T03:41:47;3.90;;;2.70;;
65162;SDS011;51751;55.714;37.436;2023-02-28T03:44:20;5.00;;;2.65;;
65162;SDS011;51751;55.714;37.436;2023-02-28T03:47:31;4.63;;;2.88;;
65162;SDS011;51751;55.714;37.436;2023-02-28T03:49:45;5.10;;;2.92;;
65162;SDS011;51751;55.714;37.436;2023-02-28T03:52:13;4.97;;;2.58;;
65162;SDS011;51751;55.714;37.436;2023-02-28T03:54:50;5.30;;;2.42;;
65162;SDS011;51751;55.714;37.436;2023-02-28T03:59:59;5.97;;;2.83;;
65162;SDS011;51751;55.714;37.436;2023-02-28T04:02:49;3.55;;;1.75;;
65162;SDS011;51751;55.714;37.436;2023-02-28T04:05:18;8.77;;;2.83;;
65162;SDS011;51751;55.714;37.436;2023-02-28T04:07:50;4.20;;;2.30;;
65162;SDS011;51751;55.714;37.436;2023-02-28T04:10:34;5.25;;;2.80;;
65162;SDS011;51751;55.714;37.436;2023-02-28T04:13:01;7.85;;;3.15;;
65162;SDS011;51751;55.714;37.436;2023-02-28T04:15:26;5.72;;;2.72;;
65162;SDS011;51751;55.714;37.436;2023-02-28T04:17:55;6.18;;;3.05;;
65162;SDS011;51751;55.714;37.436;2023-02-28T04:20:21;4.85;;;2.53;;
65162;SDS011;51751;55.714;37.436;2023-02-28T04:22:47;6.10;;;3.05;;
65162;SDS011;51751;55.714;37.436;2023-02-28T04:25:13;4.43;;;2.38;;
65162;SDS011;51751;55.714;37.436;2023-02-28T04:27:39;2.85;;;2.17;;
65162;SDS011;51751;55.714;37.436;2023-02-28T04:30:05;4.53;;;2.75;;
65162;SDS011;51751;55.714;37.436;2023-02-28T04:32:50;2.83;;;2.22;;
65162;SDS011;51751;55.714;37.436;2023-02-28T04:35:16;5.28;;;2.83;;
65162;SDS011;51751;55.714;37.436;2023-02-28T04:37:42;5.15;;;2.08;;
65162;SDS011;51751;55.714;37.436;2023-02-28T04:40:08;3.97;;;2.70;;
65162;SDS011;51751;55.714;37.436;2023-02-28T04:42:37;4.55;;;2.72;;
65162;SDS011;51751;55.714;37.436;2023-02-28T04:45:03;3.85;;;2.50;;
65162;SDS011;51751;55.714;37.436;2023-02-28T04:47:30;2.75;;;1.92;;
65162;SDS011;51751;55.714;37.436;2023-02-28T04:49:56;3.15;;;1.80;;
65162;SDS011;51751;55.714;37.436;2023-02-28T04:52:22;5.28;;;2.58;;
65162;SDS011;51751;55.714;37.436;2023-02-28T04:54:48;3.67;;;2.40;;
65162;SDS011;51751;55.714;37.436;2023-02-28T04:57:14;4.78;;;2.65;;
65162;SDS011;51751;55.714;37.436;2023-02-28T04:59:40;8.40;;;2.40;;
65162;SDS011;51751;55.714;37.436;2023-02-28T05:02:06;4.30;;;2.60;;
65162;SDS011;51751;55.714;37.436;2023-02-28T05:04:33;2.15;;;1.85;;
65162;SDS011;51751;55.714;37.436;2023-02-28T05:07:00;5.18;;;2.42;;
65162;SDS011;51751;55.714;37.436;2023-02-28T05:09:26;3.40;;;2.53;;
65162;SDS011;51751;55.714;37.436;2023-02-28T05:11:53;2.03;;;1.50;;
65162;SDS011;51751;55.714;37.436;2023-02-28T05:14:20;9.65;;;2.60;;
65162;SDS011;51751;55.714;37.436;2023-02-28T05:16:46;4.53;;;2.45;;
65162;SDS011;51751;55.714;37.436;2023-02-28T05:19:11;5.25;;;2.20;;
65162;SDS011;51751;55.714;37.436;2023-02-28T05:21:38;4.68;;;2.50;;
65162;SDS011;51751;55.714;37.436;2023-02-28T05:24:11;5.30;;;2.58;;
65162;SDS011;51751;55.714;37.436;2023-02-28T05:26:42;3.30;;;2.22;;
65162;SDS011;51751;55.714;37.436;2023-02-28T05:29:08;3.83;;;2.10;;
65162;SDS011;51751;55.714;37.436;2023-02-28T05:31:35;6.07;;;2.70;;
65162;SDS011;51751;55.714;37.436;2023-02-28T05:34:01;2.55;;;1.45;;
65162;SDS011;51751;55.714;37.436;2023-02-28T05:36:29;3.22;;;1.77;;
65162;SDS011;51751;55.714;37.436;2023-02-28T05:38:58;3.45;;;2.05;;
65162;SDS011;51751;55.714;37.436;2023-02-28T05:41:29;3.78;;;2.15;;
65162;SDS011;51751;55.714;37.436;2023-02-28T05:43:55;3.30;;;2.33;;
65162;SDS011;51751;55.714;37.436;2023-02-28T05:46:23;2.53;;;1.73;;
65162;SDS011;51751;55.714;37.436;2023-02-28T05:48:49;3.65;;;2.22;;
65162;SDS011;51751;55.714;37.436;2023-02-28T05:51:15;5.30;;;3.20;;
65162;SDS011;51751;55.714;37.436;2023-02-28T05:53:44;4.07;;;1.92;;
65162;SDS011;51751;55.714;37.436;2023-02-28T05:56:09;4.07;;;2.40;;
65162;SDS011;51751;55.714;37.436;2023-02-28T05:58:35;4.10;;;2.25;;
65162;SDS011;51751;55.714;37.436;2023-02-28T06:01:24;3.55;;;2.13;;
65162;SDS011;51751;55.714;37.436;2023-02-28T06:04:19;3.90;;;2.38;;
65162;SDS011;51751;55.714;37.436;2023-02-28T06:06:49;3.28;;;2.13;;
65162;SDS011;51751;55.714;37.436;2023-02-28T06:09:15;3.50;;;2.20;;
65162;SDS011;51751;55.714;37.436;2023-02-28T06:11:42;3.50;;;1.90;;
65162;SDS011;51751;55.714;37.436;2023-02-28T06:14:09;4.90;;;2.90;;
65162;SDS011;51751;55.714;37.436;2023-02-28T06:16:39;4.43;;;2.03;;
65162;SDS011;51751;55.714;37.436;2023-02-28T06:19:05;3.95;;;2.03;;
65162;SDS011;51751;55.714;37.436;2023-02-28T06:21:37;7.57;;;2.80;;
65162;SDS011;51751;55.714;37.436;2023-02-28T06:24:03;5.57;;;2.70;;
65162;SDS011;51751;55.714;37.436;2023-02-28T06:26:30;5.43;;;3.30;;
65162;SDS011;51751;55.714;37.436;2023-02-28T06:28:56;4.28;;;2.55;;
65162;SDS011;51751;55.714;37.436;2023-02-28T06:31:40;4.75;;;2.42;;
65162;SDS011;51751;55.714;37.436;2023-02-28T06:34:06;4.90;;;2.65;;
65162;SDS011;51751;55.714;37.436;2023-02-28T06:36:32;2.97;;;2.10;;
65162;SDS011;51751;55.714;37.436;2023-02-28T06:39:17;2.60;;;1.70;;
65162;SDS011;51751;55.714;37.436;2023-02-28T06:41:43;6.35;;;2.92;;
65162;SDS011;51751;55.714;37.436;2023-02-28T06:44:15;3.22;;;1.98;;
65162;SDS011;51751;55.714;37.436;2023-02-28T06:46:43;5.20;;;2.40;;
65162;SDS011;51751;55.714;37.436;2023-02-28T06:49:12;3.05;;;2.15;;
65162;SDS011;51751;55.714;37.436;2023-02-28T06:51:39;3.63;;;2.67;;
65162;SDS011;51751;55.714;37.436;2023-02-28T06:54:10;4.18;;;2.75;;
65162;SDS011;51751;55.714;37.436;2023-02-28T06:56:36;5.25;;;2.80;;
65162;SDS011;51751;55.714;37.436;2023-02-28T06:59:02;10.48;;;3.67;;
65162;SDS011;51751;55.714;37.436;2023-02-28T07:01:29;4.10;;;2.17;;
65162;SDS011;51751;55.714;37.436;2023-02-28T07:03:57;4.90;;;2.70;;
65162;SDS011;51751;55.714;37.436;2023-02-28T07:06:23;5.60;;;3.33;;
65162;SDS011;51751;55.714;37.436;2023-02-28T07:08:50;5.13;;;2.10;;
65162;SDS011;51751;55.714;37.436;2023-02-28T07:11:18;4.30;;;2.90;;
65162;SDS011;51751;55.714;37.436;2023-02-28T07:14:03;6.60;;;2.63;;
65162;SDS011;51751;55.714;37.436;2023-02-28T07:16:29;4.72;;;2.22;;
65162;SDS011;51751;55.714;37.436;2023-02-28T07:18:55;3.45;;;2.38;;
65162;SDS011;51751;55.714;37.436;2023-02-28T07:21:22;5.63;;;2.70;;
65162;SDS011;51751;55.714;37.436;2023-02-28T07:23:48;5.50;;;2.20;;
65162;SDS011;51751;55.714;37.436;2023-02-28T07:26:15;3.30;;;2.05;;
65162;SDS011;51751;55.714;37.436;2023-02-28T07:28:42;5.30;;;2.35;;
65162;SDS011;51751;55.714;37.436;2023-02-28T07:31:09;6.38;;;2.15;;
65162;SDS011;51751;55.714;37.436;2023-02-28T07:33:38;4.45;;;2.47;;
65162;SDS011;51751;55.714;37.436;2023-02-28T07:36:09;4.15;;;2.20;;
65162;SDS011;51751;55.714;37.436;2023-02-28T07:38:41;4.93;;;2.90;;
65162;SDS011;51751;55.714;37.436;2023-02-28T07:41:08;4.28;;;2.53;;
65162;SDS011;51751;55.714;37.436;2023-02-28T07:43:34;5.43;;;2.60;;
65162;SDS011;51751;55.714;37.436;2023-02-28T07:46:04;4.10;;;2.38;;
65162;SDS011;51751;55.714;37.436;2023-02-28T07:48:32;3.63;;;2.28;;
65162;SDS011;51751;55.714;37.436;2023-02-28T07:51:04;7.93;;;3.08;;
65162;SDS011;51751;55.714;37.436;2023-02-28T07:53:49;3.08;;;1.98;;
65162;SDS011;51751;55.714;37.436;2023-02-28T07:56:17;4.32;;;2.95;;
65162;SDS011;51751;55.714;37.436;2023-02-28T07:58:43;4.47;;;2.42;;
65162;SDS011;51751;55.714;37.436;2023-02-28T08:01:12;5.32;;;2.45;;
65162;SDS011;51751;55.714;37.436;2023-02-28T08:03:39;8.43;;;2.90;;
65162;SDS011;51751;55.714;37.436;2023-02-28T08:06:06;5.18;;;2.75;;
65162;SDS011;51751;55.714;37.436;2023-02-28T08:08:33;7.75;;;2.80;;
65162;SDS011;51751;55.714;37.436;2023-02-28T08:11:00;4.38;;;2.45;;
65162;SDS011;51751;55.714;37.436;2023-02-28T08:13:28;6.68;;;3.47;;
65162;SDS011;51751;55.714;37.436;2023-02-28T08:15:55;5.00;;;2.40;;
65162;SDS011;51751;55.714;37.436;2023-02-28T08:18:21;8.15;;;2.67;;
65162;SDS011;51751;55.714;37.436;2023-02-28T08:20:48;5.22;;;2.38;;
65162;SDS011;51751;55.714;37.436;2023-02-28T08:23:14;4.35;;;2.45;;
65162;SDS011;51751;55.714;37.436;2023-02-28T08:25:40;4.30;;;2.30;;
65162;SDS011;51751;55.714;37.436;2023-02-28T08:28:09;4.97;;;2.75;;
65162;SDS011;51751;55.714;37.436;2023-02-28T08:30:35;6.25;;;3.45;;
65162;SDS011;51751;55.714;37.436;2023-02-28T08:36:02;3.72;;;2.30;;
65162;SDS011;51751;55.714;37.436;2023-02-28T08:38:28;5.10;;;2.55;;
65162;SDS011;51751;55.714;37.436;2023-02-28T08:41:01;6.57;;;3.05;;
65162;SDS011;51751;55.714;37.436;2023-02-28T08:43:29;6.30;;;2.53;;
65162;SDS011;51751;55.714;37.436;2023-02-28T08:45:55;6.25;;;2.67;;
65162;SDS011;51751;55.714;37.436;2023-02-28T08:48:25;3.28;;;2.05;;
65162;SDS011;51751;55.714;37.436;2023-02-28T08:51:10;2.78;;;1.70;;
65162;SDS011;51751;55.714;37.436;2023-02-28T08:53:38;2.40;;;1.67;;
65162;SDS011;51751;55.714;37.436;2023-02-28T08:56:06;3.20;;;1.80;;
65162;SDS011;51751;55.714;37.436;2023-02-28T08:58:42;3.38;;;1.88;;
65162;SDS011;51751;55.714;37.436;2023-02-28T09:01:10;4.63;;;2.17;;
65162;SDS011;51751;55.714;37.436;2023-02-28T09:03:38;1.58;;;1.20;;
65162;SDS011;51751;55.714;37.436;2023-02-28T09:06:04;3.75;;;1.65;;
65162;SDS011;51751;55.714;37.436;2023-02-28T09:08:48;3.08;;;1.38;;
65162;SDS011;51751;55.714;37.436;2023-02-28T09:11:15;2.63;;;1.60;;
65162;SDS011;51751;55.714;37.436;2023-02-28T09:13:41;3.63;;;1.92;;
65162;SDS011;51751;55.714;37.436;2023-02-28T09:16:13;3.67;;;1.85;;
65162;SDS011;51751;55.714;37.436;2023-02-28T09:18:42;5.07;;;2.22;;
65162;SDS011;51751;55.714;37.436;2023-02-28T09:21:09;2.15;;;1.55;;
65162;SDS011;51751;55.714;37.436;2023-02-28T09:23:40;5.07;;;1.83;;
65162;SDS011;51751;55.714;37.436;2023-02-28T09:26:07;2.88;;;1.90;;
65162;SDS011;51751;55.714;37.436;2023-02-28T09:28:33;2.13;;;1.50;;
65162;SDS011;51751;55.714;37.436;2023-02-28T09:30:59;3.05;;;1.80;;
65162;SDS011;51751;55.714;37.436;2023-02-28T09:33:25;3.92;;;1.75;;
65162;SDS011;51751;55.714;37.436;2023-02-28T09:35:57;5.63;;;1.95;;
65162;SDS011;51751;55.714;37.436;2023-02-28T09:38:27;4.05;;;1.80;;
65162;SDS011;51751;55.714;37.436;2023-02-28T09:41:03;5.00;;;2.00;;
65162;SDS011;51751;55.714;37.436;2023-02-28T09:43:55;2.63;;;1.33;;
65162;SDS011;51751;55.714;37.436;2023-02-28T09:49:01;3.55;;;1.88;;
65162;SDS011;51751;55.714;37.436;2023-02-28T09:54:03;3.85;;;2.10;;
65162;SDS011;51751;55.714;37.436;2023-02-28T09:56:41;1.75;;;1.33;;
65162;SDS011;51751;55.714;37.436;2023-02-28T10:05:13;2.42;;;1.60;;
65162;SDS011;51751;55.714;37.436;2023-02-28T10:08:00;3.13;;;1.83;;
65162;SDS011;51751;55.714;37.436;2023-02-28T10:10:58;1.52;;;1.30;;
65162;SDS011;51751;55.714;37.436;2023-02-28T10:16:37;3.25;;;1.70;;
65162;SDS011;51751;55.714;37.436;2023-02-28T10:19:18;1.63;;;1.35;;
65162;SDS011;51751;55.714;37.436;2023-02-28T10:22:25;3.55;;;1.95;;
65162;SDS011;51751;55.714;37.436;2023-02-28T10:25:05;4.00;;;1.65;;
65162;SDS011;51751;55.714;37.436;2023-02-28T10:28:39;3.15;;;1.77;;
65162;SDS011;51751;55.714;37.436;2023-02-28T10:30:50;5.63;;;2.00;;
65162;SDS011;51751;55.714;37.436;2023-02-28T10:33:36;2.78;;;1.75;;
65162;SDS011;51751;55.714;37.436;2023-02-28T10:36:08;3.58;;;2.00;;
65162;SDS011;51751;55.714;37.436;2023-02-28T10:38:39;2.08;;;1.63;;
65162;SDS011;51751;55.714;37.436;2023-02-28T10:43:39;2.88;;;1.70;;
65162;SDS011;51751;55.714;37.436;2023-02-28T10:48:41;2.65;;;1.80;;
65162;SDS011;51751;55.714;37.436;2023-02-28T10:51:14;5.22;;;2.10;;
65162;SDS011;51751;55.714;37.436;2023-02-28T10:56:18;3.55;;;1.95;;
65162;SDS011;51751;55.714;37.436;2023-02-28T10:58:52;7.18;;;2.50;;
65162;SDS011;51751;55.714;37.436;2023-02-28T11:07:06;4.13;;;2.05;;
65162;SDS011;51751;55.714;37.436;2023-02-28T11:09:50;5.40;;;2.22;;
65162;SDS011;51751;55.714;37.436;2023-02-28T11:14:57;4.50;;;2.45;;
65162;SDS011;51751;55.714;37.436;2023-02-28T11:17:32;4.15;;;2.30;;
65162;SDS011;51751;55.714;37.436;2023-02-28T11:20:04;3.20;;;1.92;;
65162;SDS011;51751;55.714;37.436;2023-02-28T11:22:43;3.03;;;2.10;;
65162;SDS011;51751;55.714;37.436;2023-02-28T11:25:19;2.17;;;1.70;;
65162;SDS011;51751;55.714;37.436;2023-02-28T11:28:30;5.05;;;2.10;;
65162;SDS011;51751;55.714;37.436;2023-02-28T11:31:04;3.35;;;2.17;;
65162;SDS011;51751;55.714;37.436;2023-02-28T11:33:32;5.97;;;2.50;;
65162;SDS011;51751;55.714;37.436;2023-02-28T11:38:39;4.03;;;2.35;;
65162;SDS011;51751;55.714;37.436;2023-02-28T11:52:48;4.18;;;1.88;;
65162;SDS011;51751;55.714;37.436;2023-02-28T12:00:44;2.97;;;2.00;;
65162;SDS011;51751;55.714;37.436;2023-02-28T12:09:02;5.63;;;3.13;;
65162;SDS011;51751;55.714;37.436;2023-02-28T12:11:35;3.75;;;2.08;;
65162;SDS011;51751;55.714;37.436;2023-02-28T12:17:02;5.38;;;3.00;;
65162;SDS011;51751;55.714;37.436;2023-02-28T12:19:45;3.90;;;2.30;;
65162;SDS011;51751;55.714;37.436;2023-02-28T12:22:23;4.25;;;2.60;;
65162;SDS011;51751;55.714;37.436;2023-02-28T12:27:33;3.72;;;2.30;;
65162;SDS011;51751;55.714;37.436;2023-02-28T12:30:24;5.68;;;2.40;;
65162;SDS011;51751;55.714;37.436;2023-02-28T12:32:53;5.75;;;2.28;;
65162;SDS011;51751;55.714;37.436;2023-02-28T12:35:59;4.45;;;2.88;;
65162;SDS011;51751;55.714;37.436;2023-02-28T12:38:29;3.22;;;2.22;;
65162;SDS011;51751;55.714;37.436;2023-02-28T12:42:05;3.88;;;2.92;;
65162;SDS011;51751;55.714;37.436;2023-02-28T12:44:56;3.60;;;2.17;;
65162;SDS011;51751;55.714;37.436;2023-02-28T12:47:24;5.07;;;2.60;;
65162;SDS011;51751;55.714;37.436;2023-02-28T12:52:29;2.50;;;1.67;;
65162;SDS011;51751;55.714;37.436;2023-02-28T13:09:22;3.97;;;2.28;;
65162;SDS011;51751;55.714;37.436;2023-02-28T13:11:49;4.18;;;1.80;;
65162;SDS011;51751;55.714;37.436;2023-02-28T13:14:20;4.53;;;2.47;;
65162;SDS011;51751;55.714;37.436;2023-02-28T13:19:29;3.78;;;2.38;;
65162;SDS011;51751;55.714;37.436;2023-02-28T13:21:58;4.22;;;2.30;;
65162;SDS011;51751;55.714;37.436;2023-02-28T13:29:38;3.60;;;2.08;;
65162;SDS011;51751;55.714;37.436;2023-02-28T13:34:39;3.63;;;2.50;;
65162;SDS011;51751;55.714;37.436;2023-02-28T13:39:58;3.17;;;2.10;;
65162;SDS011;51751;55.714;37.436;2023-02-28T13:42:49;3.63;;;2.25;;
65162;SDS011;51751;55.714;37.436;2023-02-28T13:45:23;2.97;;;2.10;;
65162;SDS011;51751;55.714;37.436;2023-02-28T13:48:16;3.53;;;2.22;;
65162;SDS011;51751;55.714;37.436;2023-02-28T13:50:47;3.37;;;1.93;;
65162;SDS011;51751;55.714;37.436;2023-02-28T14:01:40;2.38;;;1.67;;
65162;SDS011;51751;55.714;37.436;2023-02-28T14:04:41;3.72;;;2.03;;
65162;SDS011;51751;55.714;37.436;2023-02-28T14:07:06;3.38;;;2.00;;
65162;SDS011;51751;55.714;37.436;2023-02-28T14:09:37;3.33;;;2.15;;
65162;SDS011;51751;55.714;37.436;2023-02-28T14:17:59;3.63;;;2.10;;
65162;SDS011;51751;55.714;37.436;2023-02-28T14:20:32;2.72;;;1.92;;
65162;SDS011;51751;55.714;37.436;2023-02-28T14:25:54;3.60;;;2.10;;
65162;SDS011;51751;55.714;37.436;2023-02-28T14:31:15;4.80;;;2.17;;
65162;SDS011;51751;55.714;37.436;2023-02-28T14:34:03;3.45;;;2.15;;
65162;SDS011;51751;55.714;37.436;2023-02-28T14:36:57;4.35;;;2.65;;
65162;SDS011;51751;55.714;37.436;2023-02-28T14:39:25;3.42;;;2.00;;
65162;SDS011;51751;55.714;37.436;2023-02-28T14:41:54;4.28;;;2.40;;
65162;SDS011;51751;55.714;37.436;2023-02-28T14:44:24;4.18;;;2.17;;
65162;SDS011;51751;55.714;37.436;2023-02-28T14:46:54;2.50;;;1.80;;
65162;SDS011;51751;55.714;37.436;2023-02-28T14:51:49;3.53;;;2.28;;
65162;SDS011;51751;55.714;37.436;2023-02-28T14:54:16;3.83;;;2.30;;
65162;SDS011;51751;55.714;37.436;2023-02-28T14:56:48;2.50;;;1.85;;
65162;SDS011;51751;55.714;37.436;2023-02-28T14:59:25;2.63;;;1.77;;
65162;SDS011;51751;55.714;37.436;2023-02-28T15:02:12;2.83;;;1.70;;
65162;SDS011;51751;55.714;37.436;2023-02-28T15:04:54;2.67;;;1.88;;
65162;SDS011;51751;55.714;37.436;2023-02-28T15:07:26;3.17;;;2.13;;
65162;SDS011;51751;55.714;37.436;2023-02-28T15:10:08;3.72;;;2.15;;
65162;SDS011;51751;55.714;37.436;2023-02-28T15:18:33;3.38;;;1.88;;
65162;SDS011;51751;55.714;37.436;2023-02-28T15:21:17;5.55;;;2.35;;
65162;SDS011;51751;55.714;37.436;2023-02-28T15:26:37;2.67;;;1.83;;
65162;SDS011;51751;55.714;37.436;2023-02-28T15:29:10;2.92;;;2.03;;
65162;SDS011;51751;55.714;37.436;2023-02-28T15:31:44;2.80;;;2.10;;
65162;SDS011;51751;55.714;37.436;2023-02-28T15:34:21;3.50;;;1.92;;
65162;SDS011;51751;55.714;37.436;2023-02-28T15:36:48;2.85;;;1.90;;
65162;SDS011;51751;55.714;37.436;2023-02-28T15:39:19;3.67;;;2.20;;
65162;SDS011;51751;55.714;37.436;2023-02-28T15:41:50;3.30;;;2.17;;
65162;SDS011;51751;55.714;37.436;2023-02-28T15:47:29;3.05;;;1.85;;
65162;SDS011;51751;55.714;37.436;2023-02-28T15:50:06;2.42;;;1.80;;
65162;SDS011;51751;55.714;37.436;2023-02-28T15:55:08;3.13;;;1.90;;
65162;SDS011;51751;55.714;37.436;2023-02-28T16:00:58;2.67;;;1.88;;
65162;SDS011;51751;55.714;37.436;2023-02-28T16:03:51;2.75;;;1.58;;
65162;SDS011;51751;55.714;37.436;2023-02-28T16:08:57;2.03;;;1.63;;
65162;SDS011;51751;55.714;37.436;2023-02-28T16:11:27;2.45;;;1.95;;
65162;SDS011;51751;55.714;37.436;2023-02-28T16:13:57;2.53;;;1.67;;
65162;SDS011;51751;55.714;37.436;2023-02-28T16:16:25;3.40;;;2.08;;
65162;SDS011;51751;55.714;37.436;2023-02-28T16:18:51;2.83;;;1.88;;
65162;SDS011;51751;55.714;37.436;2023-02-28T16:21:18;4.00;;;2.08;;
65162;SDS011;51751;55.714;37.436;2023-02-28T16:23:44;3.40;;;1.77;;
65162;SDS011;51751;55.714;37.436;2023-02-28T16:26:21;2.53;;;1.80;;
65162;SDS011;51751;55.714;37.436;2023-02-28T16:28:51;3.30;;;1.77;;
65162;SDS011;51751;55.714;37.436;2023-02-28T16:31:17;1.83;;;1.50;;
65162;SDS011;51751;55.714;37.436;2023-02-28T16:33:44;3.17;;;1.90;;
65162;SDS011;51751;55.714;37.436;2023-02-28T16:36:18;3.08;;;1.80;;
65162;SDS011;51751;55.714;37.436;2023-02-28T16:39:04;2.60;;;1.83;;
65162;SDS011;51751;55.714;37.436;2023-02-28T16:41:30;2.78;;;1.77;;
65162;SDS011;51751;55.714;37.436;2023-02-28T16:43:56;2.38;;;1.60;;
65162;SDS011;51751;55.714;37.436;2023-02-28T16:46:35;2.47;;;1.80;;
65162;SDS011;51751;55.714;37.436;2023-02-28T16:49:01;5.28;;;1.70;;
65162;SDS011;51751;55.714;37.436;2023-02-28T16:51:27;2.50;;;1.63;;
65162;SDS011;51751;55.714;37.436;2023-02-28T16:53:53;1.20;;;1.10;;
65162;SDS011;51751;55.714;37.436;2023-02-28T16:56:21;2.33;;;1.65;;
65162;SDS011;51751;55.714;37.436;2023-02-28T16:58:49;2.95;;;1.70;;
65162;SDS011;51751;55.714;37.436;2023-02-28T17:01:15;1.80;;;1.35;;
65162;SDS011;51751;55.714;37.436;2023-02-28T17:03:42;2.40;;;1.73;;
65162;SDS011;51751;55.714;37.436;2023-02-28T17:06:19;3.40;;;1.85;;
65162;SDS011;51751;55.714;37.436;2023-02-28T17:08:47;5.38;;;1.98;;
65162;SDS011;51751;55.714;37.436;2023-02-28T17:11:14;2.22;;;1.60;;
65162;SDS011;51751;55.714;37.436;2023-02-28T17:13:40;3.45;;;1.70;;
65162;SDS011;51751;55.714;37.436;2023-02-28T17:16:08;4.00;;;1.88;;
65162;SDS011;51751;55.714;37.436;2023-02-28T17:18:57;2.15;;;1.45;;
65162;SDS011;51751;55.714;37.436;2023-02-28T17:21:25;2.03;;;1.30;;
65162;SDS011;51751;55.714;37.436;2023-02-28T17:23:51;2.03;;;1.15;;
65162;SDS011;51751;55.714;37.436;2023-02-28T17:26:17;1.15;;;1.00;;
65162;SDS011;51751;55.714;37.436;2023-02-28T17:28:48;1.75;;;0.82;;
65162;SDS011;51751;55.714;37.436;2023-02-28T17:31:14;2.33;;;1.10;;
65162;SDS011;51751;55.714;37.436;2023-02-28T17:33:40;0.88;;;0.73;;
65162;SDS011;51751;55.714;37.436;2023-02-28T17:36:09;0.70;;;0.65;;
65162;SDS011;51751;55.714;37.436;2023-02-28T17:38:39;0.60;;;0.60;;
65162;SDS011;51751;55.714;37.436;2023-02-28T17:41:05;0.98;;;0.88;;
65162;SDS011;51751;55.714;37.436;2023-02-28T17:43:33;1.85;;;1.00;;
65162;SDS011;51751;55.714;37.436;2023-02-28T17:45:59;2.58;;;1.20;;
65162;SDS011;51751;55.714;37.436;2023-02-28T17:48:28;2.97;;;1.60;;